createdAt,value
2018-12-06T00:00:52.120Z,10.30
2018-12-06T00:03:20.427Z,10.40
2018-12-06T00:05:48.753Z,9.63
2018-12-06T00:08:18.274Z,9.83
2018-12-06T00:10:46.565Z,9.40
2018-12-06T00:13:15.414Z,10.33
2018-12-06T00:15:44.332Z,9.93
2018-12-06T00:18:12.618Z,9.63
2018-12-06T00:20:41.139Z,9.20
2018-12-06T00:23:09.434Z,9.97
2018-12-06T00:25:38.174Z,10.07
2018-12-06T00:28:06.995Z,9.83
2018-12-06T00:30:37.007Z,10.23
2018-12-06T00:33:05.604Z,10.60
2018-12-06T00:35:34.032Z,10.03
2018-12-06T00:38:02.376Z,9.87
2018-12-06T00:40:30.764Z,9.50
2018-12-06T00:42:59.085Z,10.03
2018-12-06T00:45:27.410Z,10.33
2018-12-06T00:47:55.667Z,10.20
2018-12-06T00:50:24.106Z,9.80
2018-12-06T00:52:52.448Z,9.73
2018-12-06T00:55:20.904Z,10.03
2018-12-06T00:57:49.222Z,9.97
2018-12-06T01:00:17.566Z,10.03
2018-12-06T01:02:46.088Z,10.70
2018-12-06T01:05:14.485Z,10.77
2018-12-06T01:07:42.835Z,10.07
2018-12-06T01:10:11.566Z,11.00
2018-12-06T01:12:40.163Z,9.93
2018-12-06T01:15:08.536Z,9.97
2018-12-06T01:17:36.838Z,10.17
2018-12-06T01:20:05.513Z,10.83
2018-12-06T01:22:34.268Z,11.27
2018-12-06T01:25:02.630Z,11.63
2018-12-06T01:27:31.090Z,12.43
2018-12-06T01:29:59.526Z,11.70
2018-12-06T01:32:28.186Z,11.83
2018-12-06T01:34:56.537Z,12.43
2018-12-06T01:37:24.839Z,12.17
2018-12-06T01:39:53.162Z,13.00
2018-12-06T01:42:21.445Z,11.47
2018-12-06T01:44:50.486Z,11.70
2018-12-06T01:47:18.834Z,11.47
2018-12-06T01:49:47.682Z,11.80
2018-12-06T01:52:15.961Z,12.03
2018-12-06T01:54:45.052Z,10.30
2018-12-06T01:57:13.354Z,10.83
2018-12-06T01:59:41.653Z,10.83
2018-12-06T02:02:09.971Z,10.77
2018-12-06T02:04:38.288Z,12.13
2018-12-06T02:07:07.370Z,11.43
2018-12-06T02:09:36.355Z,10.77
2018-12-06T02:12:04.662Z,10.17
2018-12-06T02:14:32.963Z,9.37
2018-12-06T02:17:01.292Z,10.17
2018-12-06T02:19:29.578Z,9.53
2018-12-06T02:21:57.901Z,10.73
2018-12-06T02:24:26.217Z,11.17
2018-12-06T02:26:54.525Z,10.80
2018-12-06T02:29:22.809Z,10.90
2018-12-06T02:31:51.132Z,10.23
2018-12-06T02:34:19.424Z,10.73
2018-12-06T02:36:48.653Z,11.27
2018-12-06T02:39:16.946Z,10.77
2018-12-06T02:41:45.275Z,11.10
2018-12-06T02:44:13.582Z,11.53
2018-12-06T02:46:41.903Z,12.07
2018-12-06T02:49:10.198Z,11.00
2018-12-06T02:51:39.049Z,10.97
2018-12-06T02:54:07.377Z,11.23
2018-12-06T02:56:35.681Z,11.03
2018-12-06T02:59:03.962Z,11.20
2018-12-06T03:01:32.258Z,11.63
2018-12-06T03:04:00.550Z,11.10
2018-12-06T03:06:28.882Z,11.33
2018-12-06T03:08:57.172Z,11.77
2018-12-06T03:11:25.727Z,11.77
2018-12-06T03:13:55.094Z,11.77
2018-12-06T03:16:23.411Z,11.53
2018-12-06T03:18:51.687Z,11.27
2018-12-06T03:21:20.046Z,12.03
2018-12-06T03:23:48.361Z,12.20
2018-12-06T03:26:16.675Z,11.47
2018-12-06T03:28:44.962Z,11.80
2018-12-06T03:31:13.260Z,10.37
2018-12-06T03:33:41.562Z,10.17
2018-12-06T03:36:09.879Z,10.23
2018-12-06T03:38:38.161Z,9.77
2018-12-06T03:41:06.495Z,9.90
2018-12-06T03:43:35.257Z,10.40
2018-12-06T03:46:04.876Z,9.77
2018-12-06T03:48:33.152Z,9.60
2018-12-06T03:51:01.971Z,9.40
2018-12-06T03:53:30.244Z,10.33
2018-12-06T03:55:58.610Z,9.23
2018-12-06T03:58:26.880Z,9.50
2018-12-06T04:00:55.187Z,10.23
2018-12-06T04:03:24.447Z,8.93
2018-12-06T04:05:52.797Z,9.20
2018-12-06T04:08:21.105Z,8.53
2018-12-06T04:10:49.373Z,9.33
2018-12-06T04:13:17.758Z,9.10
2018-12-06T04:15:46.071Z,8.70
2018-12-06T04:18:15.869Z,8.33
2018-12-06T04:20:44.160Z,8.10
2018-12-06T04:23:12.471Z,8.33
2018-12-06T04:25:41.421Z,8.40
2018-12-06T04:28:09.707Z,7.03
2018-12-06T04:30:37.976Z,7.47
2018-12-06T04:33:06.276Z,6.97
2018-12-06T04:35:34.566Z,7.17
2018-12-06T04:38:02.880Z,7.03
2018-12-06T04:40:31.190Z,7.10
2018-12-06T04:42:59.514Z,6.87
2018-12-06T04:45:27.785Z,7.07
2018-12-06T04:47:56.122Z,6.33
2018-12-06T04:50:25.309Z,6.87
2018-12-06T04:52:53.666Z,5.87
2018-12-06T04:55:21.950Z,6.90
2018-12-06T04:57:50.319Z,6.83
2018-12-06T05:00:18.611Z,5.93
2018-12-06T05:02:46.995Z,5.80
2018-12-06T05:05:15.290Z,6.57
2018-12-06T05:07:43.597Z,5.60
2018-12-06T05:10:11.893Z,6.00
2018-12-06T05:12:40.185Z,5.30
2018-12-06T05:15:08.474Z,5.70
2018-12-06T05:17:36.784Z,4.87
2018-12-06T05:20:05.494Z,5.40
2018-12-06T05:22:33.822Z,5.00
2018-12-06T05:25:02.101Z,5.57
2018-12-06T05:27:30.413Z,4.93
2018-12-06T05:29:58.724Z,4.90
2018-12-06T05:32:27.111Z,5.00
2018-12-06T05:34:55.451Z,5.33
2018-12-06T05:37:23.810Z,4.57
2018-12-06T05:39:52.111Z,5.17
2018-12-06T05:42:20.491Z,4.50
2018-12-06T05:44:48.814Z,4.90
2018-12-06T05:47:17.157Z,5.10
2018-12-06T05:49:45.479Z,4.67
2018-12-06T05:52:13.831Z,4.77
2018-12-06T05:54:42.112Z,9.77
2018-12-06T05:57:10.414Z,7.93
2018-12-06T05:59:38.782Z,4.90
2018-12-06T06:02:07.081Z,7.17
2018-12-06T06:04:35.394Z,5.57
2018-12-06T06:07:03.725Z,5.70
2018-12-06T06:09:32.365Z,5.70
2018-12-06T06:12:00.642Z,5.27
2018-12-06T06:14:29.010Z,5.27
2018-12-06T06:16:57.384Z,4.70
2018-12-06T06:19:25.676Z,5.40
2018-12-06T06:21:53.946Z,10.63
2018-12-06T06:24:22.240Z,8.83
2018-12-06T06:26:50.614Z,6.73
2018-12-06T06:29:18.962Z,5.40
2018-12-06T06:31:47.345Z,6.80
2018-12-06T06:34:15.684Z,6.00
2018-12-06T06:36:44.057Z,5.73
2018-12-06T06:39:12.348Z,5.93
2018-12-06T06:41:40.641Z,6.13
2018-12-06T06:44:08.948Z,6.20
2018-12-06T06:46:37.226Z,5.20
2018-12-06T06:49:05.666Z,5.63
2018-12-06T06:51:33.974Z,5.43
2018-12-06T06:54:02.290Z,6.00
2018-12-06T06:56:30.619Z,5.37
2018-12-06T06:58:58.940Z,4.97
2018-12-06T07:01:27.245Z,5.40
2018-12-06T07:03:55.529Z,5.67
2018-12-06T07:06:23.797Z,5.90
2018-12-06T07:08:52.181Z,6.13
2018-12-06T07:11:20.573Z,5.20
2018-12-06T07:13:48.853Z,5.23
2018-12-06T07:16:17.181Z,5.80
2018-12-06T07:18:45.477Z,5.27
2018-12-06T07:21:13.740Z,5.10
2018-12-06T07:23:42.022Z,5.17
2018-12-06T07:26:10.345Z,5.47
2018-12-06T07:28:38.798Z,5.40
2018-12-06T07:31:07.262Z,5.73
2018-12-06T07:33:35.619Z,6.40
2018-12-06T07:36:04.437Z,6.30
2018-12-06T07:38:32.804Z,5.70
2018-12-06T07:41:01.085Z,5.97
2018-12-06T07:43:29.417Z,5.57
2018-12-06T07:46:03.295Z,5.70
2018-12-06T07:48:32.561Z,5.00
2018-12-06T07:51:00.847Z,5.10
2018-12-06T07:53:29.229Z,4.70
2018-12-06T07:55:57.490Z,4.93
2018-12-06T07:58:25.932Z,4.30
2018-12-06T08:00:54.268Z,5.00
2018-12-06T08:03:22.564Z,4.50
2018-12-06T08:05:50.996Z,4.27
2018-12-06T08:08:19.410Z,3.90
2018-12-06T08:10:47.799Z,3.27
2018-12-06T08:13:16.137Z,3.63
2018-12-06T08:15:44.407Z,3.07
2018-12-06T08:18:12.763Z,3.57
2018-12-06T08:20:41.063Z,4.00
2018-12-06T08:23:09.415Z,3.03
2018-12-06T08:25:37.709Z,2.53
2018-12-06T08:28:05.976Z,3.20
2018-12-06T08:30:35.512Z,2.47
2018-12-06T08:33:03.825Z,2.87
2018-12-06T08:35:32.127Z,3.07
2018-12-06T08:38:00.432Z,2.90
2018-12-06T08:40:29.714Z,3.53
2018-12-06T08:42:58.140Z,3.03
2018-12-06T08:45:26.681Z,2.63
2018-12-06T08:47:54.941Z,2.50
2018-12-06T08:50:23.257Z,2.77
2018-12-06T08:52:51.528Z,2.73
2018-12-06T08:55:19.896Z,2.90
2018-12-06T08:57:48.165Z,2.80
2018-12-06T09:00:16.466Z,3.10
2018-12-06T09:02:46.018Z,2.87
2018-12-06T09:05:14.315Z,3.10
2018-12-06T09:07:42.693Z,2.93
2018-12-06T09:10:11.582Z,2.63
2018-12-06T09:12:39.856Z,2.53
2018-12-06T09:15:08.205Z,3.10
2018-12-06T09:17:36.493Z,2.67
2018-12-06T09:20:05.705Z,3.17
2018-12-06T09:22:35.283Z,3.07
2018-12-06T09:25:04.717Z,2.93
2018-12-06T09:27:33.547Z,3.07
2018-12-06T09:30:01.833Z,3.10
2018-12-06T09:32:30.105Z,3.27
2018-12-06T09:34:58.400Z,3.27
2018-12-06T09:37:27.560Z,3.00
2018-12-06T09:39:57.472Z,3.20
2018-12-06T09:42:25.886Z,3.00
2018-12-06T09:44:54.176Z,2.80
2018-12-06T09:47:22.465Z,2.40
2018-12-06T09:49:50.838Z,2.57
2018-12-06T09:52:19.106Z,2.30
2018-12-06T09:54:47.389Z,2.50
2018-12-06T09:57:15.675Z,3.00
2018-12-06T09:59:44.009Z,2.50
2018-12-06T10:02:15.423Z,2.93
2018-12-06T10:04:43.725Z,2.87
2018-12-06T10:07:12.017Z,3.07
2018-12-06T10:09:40.337Z,3.10
2018-12-06T10:12:08.613Z,2.93
2018-12-06T10:14:36.901Z,2.87
2018-12-06T10:17:05.168Z,3.03
2018-12-06T10:19:33.925Z,3.40
2018-12-06T10:22:02.984Z,2.70
2018-12-06T10:24:31.291Z,3.17
2018-12-06T10:27:00.060Z,3.30
2018-12-06T10:29:28.542Z,3.27
2018-12-06T10:31:57.415Z,3.67
2018-12-06T10:34:25.703Z,4.10
2018-12-06T10:36:53.982Z,3.87
2018-12-06T10:39:22.285Z,3.93
2018-12-06T10:41:50.542Z,4.00
2018-12-06T10:44:28.044Z,3.40
2018-12-06T10:46:56.308Z,3.53
2018-12-06T10:49:24.776Z,3.50
2018-12-06T10:51:53.046Z,3.77
2018-12-06T10:54:21.356Z,3.77
2018-12-06T10:56:49.724Z,4.00
2018-12-06T10:59:18.017Z,4.00
2018-12-06T11:01:49.997Z,3.87
2018-12-06T11:04:18.348Z,4.03
2018-12-06T11:06:47.958Z,3.97
2018-12-06T11:09:19.024Z,4.30
2018-12-06T11:11:47.308Z,4.50
2018-12-06T11:14:16.687Z,4.50
2018-12-06T11:16:44.961Z,5.00
2018-12-06T11:19:13.356Z,5.03
2018-12-06T11:21:41.769Z,4.43
2018-12-06T11:24:10.074Z,4.53
2018-12-06T11:26:39.218Z,4.70
2018-12-06T11:29:07.517Z,4.20
2018-12-06T11:31:37.184Z,4.57
2018-12-06T11:34:05.638Z,4.50
2018-12-06T11:36:33.897Z,4.57
2018-12-06T11:39:02.186Z,5.27
2018-12-06T11:41:30.492Z,4.23
2018-12-06T11:43:58.765Z,4.07
2018-12-06T11:46:27.061Z,3.60
2018-12-06T11:48:55.390Z,4.43
2018-12-06T11:51:23.757Z,4.17
2018-12-06T11:53:52.025Z,3.63
2018-12-06T11:56:21.751Z,3.93
2018-12-06T11:58:50.082Z,3.70
2018-12-06T12:01:18.461Z,4.23
2018-12-06T12:03:46.733Z,3.93
2018-12-06T12:06:15.033Z,3.50
2018-12-06T12:08:43.326Z,4.10
2018-12-06T12:11:11.696Z,4.07
2018-12-06T12:13:40.070Z,3.80
2018-12-06T12:16:08.352Z,4.00
2018-12-06T12:18:36.762Z,3.47
2018-12-06T12:21:05.228Z,3.93
2018-12-06T12:23:33.616Z,3.90
2018-12-06T12:26:01.966Z,3.70
2018-12-06T12:28:30.247Z,3.83
2018-12-06T12:30:58.551Z,3.53
2018-12-06T12:33:27.687Z,3.63
2018-12-06T12:35:57.423Z,3.50
2018-12-06T12:38:25.873Z,3.00
2018-12-06T12:40:54.273Z,3.20
2018-12-06T12:43:22.653Z,3.00
2018-12-06T12:45:50.949Z,3.00
2018-12-06T12:48:19.222Z,2.97
2018-12-06T12:50:47.591Z,3.00
2018-12-06T12:53:16.038Z,2.97
2018-12-06T12:55:44.438Z,2.90
2018-12-06T12:58:12.706Z,2.40
2018-12-06T13:00:41.293Z,2.40
2018-12-06T13:03:09.565Z,2.23
2018-12-06T13:05:37.942Z,2.33
2018-12-06T13:08:06.307Z,2.30
2018-12-06T13:10:34.600Z,1.80
2018-12-06T13:13:02.882Z,2.37
2018-12-06T13:15:31.257Z,2.03
2018-12-06T13:17:59.535Z,2.30
2018-12-06T13:20:27.916Z,2.00
2018-12-06T13:22:56.209Z,1.80
2018-12-06T13:25:24.554Z,1.70
2018-12-06T13:27:52.861Z,1.70
2018-12-06T13:30:21.210Z,1.80
2018-12-06T13:32:49.478Z,1.40
2018-12-06T13:35:17.863Z,1.57
2018-12-06T13:37:47.441Z,1.77
2018-12-06T13:40:15.752Z,1.73
2018-12-06T13:42:44.617Z,1.50
2018-12-06T13:45:13.012Z,1.37
2018-12-06T13:47:41.278Z,1.50
2018-12-06T13:50:09.560Z,1.30
2018-12-06T13:52:37.944Z,1.10
2018-12-06T13:55:06.321Z,1.50
2018-12-06T13:57:34.607Z,2.13
2018-12-06T14:00:02.908Z,1.47
2018-12-06T14:02:31.250Z,1.60
2018-12-06T14:05:00.105Z,1.50
2018-12-06T14:07:28.371Z,1.23
2018-12-06T14:09:56.685Z,1.50
2018-12-06T14:12:25.042Z,2.47
2018-12-06T14:14:53.318Z,1.63
2018-12-06T14:17:21.633Z,1.33
2018-12-06T14:19:49.906Z,1.57
2018-12-06T14:22:18.234Z,1.77
2018-12-06T14:24:47.139Z,1.70
2018-12-06T14:27:15.625Z,1.60
2018-12-06T14:29:43.918Z,2.10
2018-12-06T14:32:12.187Z,1.73
2018-12-06T14:34:40.554Z,1.97
2018-12-06T14:37:08.817Z,1.50
2018-12-06T14:39:37.186Z,1.70
2018-12-06T14:42:05.469Z,1.50
2018-12-06T14:44:33.774Z,1.50
2018-12-06T14:47:03.356Z,1.40
2018-12-06T14:49:31.720Z,1.50
2018-12-06T14:52:00.018Z,1.60
2018-12-06T14:54:28.308Z,1.47
2018-12-06T14:56:56.666Z,1.60
2018-12-06T14:59:25.046Z,1.83
2018-12-06T15:01:53.324Z,1.70
2018-12-06T15:04:24.269Z,1.73
2018-12-06T15:06:52.715Z,1.40
2018-12-06T15:09:21.021Z,1.70
2018-12-06T15:11:49.281Z,1.33
2018-12-06T15:14:17.565Z,1.80
2018-12-06T15:16:45.915Z,1.63
2018-12-06T15:19:14.222Z,1.80
2018-12-06T15:21:42.496Z,1.40
2018-12-06T15:24:10.773Z,1.33
2018-12-06T15:26:39.146Z,1.70
2018-12-06T15:29:07.438Z,1.40
2018-12-06T15:31:35.809Z,1.70
2018-12-06T15:34:04.102Z,2.77
2018-12-06T15:36:32.389Z,1.73
2018-12-06T15:39:00.671Z,1.90
2018-12-06T15:41:28.946Z,2.03
2018-12-06T15:43:57.242Z,1.73
2018-12-06T15:46:25.512Z,1.87
2018-12-06T15:48:53.842Z,1.93
2018-12-06T15:51:22.202Z,1.80
2018-12-06T15:53:50.546Z,1.67
2018-12-06T15:56:18.952Z,1.97
2018-12-06T15:58:47.337Z,2.03
2018-12-06T16:01:15.635Z,2.10
2018-12-06T16:03:44.193Z,1.87
2018-12-06T16:06:12.469Z,2.40
2018-12-06T16:08:40.770Z,2.00
2018-12-06T16:11:09.032Z,2.00
2018-12-06T16:13:37.333Z,2.10
2018-12-06T16:16:05.615Z,2.23
2018-12-06T16:18:33.974Z,2.13
2018-12-06T16:21:02.250Z,2.50
2018-12-06T16:23:30.806Z,2.20
2018-12-06T16:25:59.171Z,2.07
2018-12-06T16:28:27.440Z,2.30
2018-12-06T16:30:55.825Z,2.17
2018-12-06T16:33:24.371Z,2.00
2018-12-06T16:35:52.673Z,2.17
2018-12-06T16:38:20.943Z,2.20
2018-12-06T16:40:49.248Z,2.20
2018-12-06T16:43:17.689Z,2.30
2018-12-06T16:45:46.014Z,2.00
2018-12-06T16:48:14.290Z,2.07
2018-12-06T16:50:43.253Z,2.17
2018-12-06T16:53:11.641Z,2.40
2018-12-06T16:55:39.930Z,2.27
2018-12-06T16:58:08.211Z,2.10
2018-12-06T17:00:36.559Z,2.10
2018-12-06T17:03:04.833Z,2.17
2018-12-06T17:05:33.137Z,1.90
2018-12-06T17:08:01.566Z,2.30
2018-12-06T17:10:30.626Z,2.07
2018-12-06T17:12:59.891Z,2.13
2018-12-06T17:15:28.338Z,1.77
2018-12-06T17:17:56.678Z,2.20
2018-12-06T17:20:25.026Z,2.30
2018-12-06T17:22:53.321Z,2.23
2018-12-06T17:25:21.661Z,1.60
2018-12-06T17:27:49.929Z,2.10
2018-12-06T17:30:18.287Z,2.50
2018-12-06T17:32:46.688Z,2.27
2018-12-06T17:35:14.994Z,2.40
2018-12-06T17:37:43.268Z,1.83
2018-12-06T17:40:11.650Z,1.70
2018-12-06T17:42:40.803Z,1.97
2018-12-06T17:45:09.094Z,1.70
2018-12-06T17:47:37.362Z,1.90
2018-12-06T17:50:06.326Z,1.87
2018-12-06T17:52:34.630Z,2.00
2018-12-06T17:55:03.019Z,2.00
2018-12-06T17:57:31.283Z,2.20
2018-12-06T17:59:59.585Z,2.30
2018-12-06T18:02:27.873Z,2.20
2018-12-06T18:04:56.249Z,2.10
2018-12-06T18:07:24.558Z,2.40
2018-12-06T18:09:52.886Z,9.37
2018-12-06T18:12:21.190Z,8.10
2018-12-06T18:14:49.504Z,2.20
2018-12-06T18:17:17.793Z,2.27
2018-12-06T18:19:46.093Z,2.10
2018-12-06T18:22:14.461Z,2.43
2018-12-06T18:24:42.806Z,2.70
2018-12-06T18:27:11.127Z,2.60
2018-12-06T18:29:39.552Z,2.20
2018-12-06T18:32:07.833Z,2.40
2018-12-06T18:34:36.169Z,2.20
2018-12-06T18:37:04.479Z,2.50
2018-12-06T18:39:32.899Z,2.30
2018-12-06T18:42:01.832Z,2.93
2018-12-06T18:44:30.140Z,2.90
2018-12-06T18:46:58.571Z,2.73
2018-12-06T18:49:27.057Z,2.80
2018-12-06T18:51:55.417Z,2.60
2018-12-06T18:54:23.871Z,2.43
2018-12-06T18:56:52.360Z,2.80
2018-12-06T18:59:20.624Z,2.80
2018-12-06T19:01:49.171Z,2.83
2018-12-06T19:04:17.779Z,2.60
2018-12-06T19:06:46.090Z,3.03
2018-12-06T19:09:14.378Z,2.80
2018-12-06T19:11:42.712Z,2.90
2018-12-06T19:14:11.104Z,2.50
2018-12-06T19:16:39.605Z,2.47
2018-12-06T19:19:07.954Z,2.27
2018-12-06T19:21:36.345Z,2.40
2018-12-06T19:24:05.317Z,2.40
2018-12-06T19:26:33.635Z,2.60
2018-12-06T19:29:01.916Z,2.60
2018-12-06T19:31:30.263Z,2.37
2018-12-06T19:33:58.633Z,2.57
2018-12-06T19:36:26.928Z,2.23
2018-12-06T19:38:55.303Z,2.53
2018-12-06T19:41:23.824Z,2.40
2018-12-06T19:43:52.208Z,2.53
2018-12-06T19:46:21.326Z,2.80
2018-12-06T19:48:49.796Z,2.50
2018-12-06T19:51:18.197Z,2.57
2018-12-06T19:53:46.497Z,2.80
2018-12-06T19:56:14.985Z,2.83
2018-12-06T19:58:43.287Z,2.80
2018-12-06T20:01:11.806Z,3.20
2018-12-06T20:03:40.078Z,3.00
2018-12-06T20:06:09.263Z,2.60
2018-12-06T20:08:37.556Z,2.87
2018-12-06T20:11:05.858Z,2.37
2018-12-06T20:13:34.169Z,3.00
2018-12-06T20:16:02.479Z,2.83
2018-12-06T20:18:30.923Z,2.93
2018-12-06T20:20:59.362Z,3.43
2018-12-06T20:23:27.630Z,2.90
2018-12-06T20:25:55.945Z,3.97
2018-12-06T20:28:26.656Z,2.93
2018-12-06T20:30:54.803Z,3.40
2018-12-06T20:33:23.175Z,3.53
2018-12-06T20:35:51.531Z,3.57
2018-12-06T20:38:19.929Z,3.03
2018-12-06T20:40:48.237Z,3.20
2018-12-06T20:43:16.512Z,2.87
2018-12-06T20:45:44.836Z,3.00
2018-12-06T20:48:13.218Z,3.03
2018-12-06T20:50:41.517Z,2.90
2018-12-06T20:53:09.836Z,2.97
2018-12-06T20:55:38.149Z,2.47
2018-12-06T20:58:06.436Z,2.57
2018-12-06T21:00:36.874Z,2.30
2018-12-06T21:03:05.640Z,2.30
2018-12-06T21:05:34.009Z,2.10
2018-12-06T21:08:02.337Z,2.30
2018-12-06T21:10:30.692Z,1.97
2018-12-06T21:12:59.159Z,2.03
2018-12-06T21:15:27.516Z,1.90
2018-12-06T21:17:55.821Z,2.13
2018-12-06T21:20:24.107Z,1.40
2018-12-06T21:22:52.482Z,2.00
2018-12-06T21:25:20.902Z,2.27
2018-12-06T21:27:49.281Z,1.80
2018-12-06T21:30:17.654Z,1.80
2018-12-06T21:32:45.982Z,1.93
2018-12-06T21:35:14.250Z,1.70
2018-12-06T21:37:42.669Z,1.70
2018-12-06T21:40:10.973Z,1.60
2018-12-06T21:42:39.433Z,1.30
2018-12-06T21:45:07.748Z,1.60
2018-12-06T21:47:36.145Z,1.57
2018-12-06T21:50:05.858Z,1.40
2018-12-06T21:52:34.181Z,1.47
2018-12-06T21:55:02.517Z,1.50
2018-12-06T21:57:30.855Z,1.10
2018-12-06T21:59:59.251Z,1.40
2018-12-06T22:02:27.751Z,1.20
2018-12-06T22:04:56.099Z,1.77
2018-12-06T22:07:24.468Z,1.50
2018-12-06T22:09:52.840Z,1.57
2018-12-06T22:12:21.223Z,1.43
2018-12-06T22:14:49.536Z,1.13
2018-12-06T22:17:17.833Z,2.00
2018-12-06T22:19:46.154Z,1.23
2018-12-06T22:22:14.649Z,1.50
2018-12-06T22:24:42.933Z,1.67
2018-12-06T22:27:11.403Z,1.10
2018-12-06T22:29:39.826Z,1.50
2018-12-06T22:32:08.237Z,1.10
2018-12-06T22:34:36.548Z,1.27
2018-12-06T22:37:04.852Z,1.10
2018-12-06T22:39:33.124Z,1.40
2018-12-06T22:42:01.455Z,1.20
2018-12-06T22:44:29.757Z,1.43
2018-12-06T22:46:58.098Z,1.27
2018-12-06T22:49:26.486Z,1.00
2018-12-06T22:51:54.999Z,1.20
2018-12-06T22:54:23.393Z,1.13
2018-12-06T22:56:51.861Z,1.23
2018-12-06T22:59:20.229Z,1.20
2018-12-06T23:01:49.861Z,1.10
2018-12-06T23:04:18.605Z,1.13
2018-12-06T23:06:46.906Z,1.30
2018-12-06T23:09:15.228Z,1.17
2018-12-06T23:11:43.628Z,1.23
2018-12-06T23:14:11.985Z,1.13
2018-12-06T23:16:40.349Z,0.97
2018-12-06T23:19:08.737Z,1.37
2018-12-06T23:21:37.316Z,1.10
2018-12-06T23:24:05.624Z,1.00
2018-12-06T23:26:33.921Z,0.97
2018-12-06T23:29:02.357Z,1.00
2018-12-06T23:31:30.744Z,1.60
2018-12-06T23:33:59.098Z,2.30
2018-12-06T23:36:27.371Z,1.10
2018-12-06T23:38:55.765Z,1.10
2018-12-06T23:41:24.057Z,1.40
2018-12-06T23:43:52.381Z,0.80
2018-12-06T23:46:20.847Z,0.90
2018-12-06T23:48:49.373Z,0.90
2018-12-06T23:51:29.324Z,1.00
2018-12-06T23:53:57.648Z,0.87
2018-12-06T23:56:26.080Z,1.03
2018-12-06T23:58:54.461Z,1.10
